Terminal Aerodrome Forecast
Issued by NWS Sioux Falls, SD

Home | Current Version | Previous Version | Graphics & Text | Print | Product List | Glossary Off
Versions: 1 2 3 4 5 6 7 8 9 10 11 12 13 14

471
FTUS43 KFSD 241722
TAFHON
TAF
KHON 241722Z 2418/2518 31012KT P6SM BKN150
     FM250200 29008KT P6SM SCT140
     FM250900 31007KT P6SM SCT200
     FM251500 32011KT P6SM FEW200=

USA.gov is the U.S. government's official web portal to all federal, state and local government web resources and services.